Time;durP1;ratioP1;P1;durP2;ratioP2;P2;SDS_P1;SDS_P2;PMS_P1;PMS_P2;Temp;Humidity;BMP_temperature;BMP_pressure;BME280_temperature;BME280_humidity;BME280_pressure;Samples;Min_cycle;Max_cycle;Signal;HPM_P1;HPM_P2
2022/08/06 00:02:20;;;;;;;2.53;1.02;;;;;;;15.69;77.56;101365.50;5051036;28;20053;-62
2022/08/06 00:04:52;;;;;;;14.43;1.15;;;;;;;15.64;77.41;101378.22;5053407;28;20044;-60
2022/08/06 00:07:20;;;;;;;1.65;0.70;;;;;;;15.63;77.33;101388.94;5051623;28;20440;-60
2022/08/06 00:09:48;;;;;;;2.08;0.82;;;;;;;15.62;77.07;101397.81;5051588;28;20053;-58
2022/08/06 00:12:28;;;;;;;3.42;0.80;;;;;;;15.60;77.13;101400.59;5056209;28;20530;-61
2022/08/06 00:14:56;;;;;;;1.70;0.80;;;;;;;15.61;77.11;101404.09;5051674;28;21779;-60
2022/08/06 00:17:25;;;;;;;1.58;0.90;;;;;;;15.57;77.33;101405.25;5055776;28;20067;-61
2022/08/06 00:19:58;;;;;;;1.95;0.85;;;;;;;15.57;77.26;101423.81;5053738;28;20531;-59
2022/08/06 00:22:27;;;;;;;2.83;1.02;;;;;;;15.53;77.62;101423.16;5059762;28;20048;-61
2022/08/06 00:24:56;;;;;;;5.07;1.00;;;;;;;15.44;78.12;101423.78;5048400;28;20052;-61
2022/08/06 00:27:24;;;;;;;2.15;0.88;;;;;;;15.43;78.05;101427.41;5051857;28;20056;-61
2022/08/06 00:30:06;;;;;;;3.33;0.90;;;;;;;15.35;78.31;101425.25;5048891;28;20563;-58
2022/08/06 00:32:45;;;;;;;3.08;1.17;;;;;;;15.28;78.64;101418.66;5053734;28;20053;-60
2022/08/06 00:35:20;;;;;;;8.18;0.95;;;;;;;15.27;78.69;101424.09;5051053;28;20056;-59
2022/08/06 00:37:55;;;;;;;5.25;1.30;;;;;;;15.22;78.67;101423.50;5054617;28;20057;-59
2022/08/06 00:40:27;;;;;;;3.08;0.90;;;;;;;15.14;79.09;101429.34;5052547;28;20063;-61
2022/08/06 00:43:00;;;;;;;1.63;0.82;;;;;;;15.09;79.17;101420.84;5052224;28;20063;-58
2022/08/06 00:45:33;;;;;;;4.88;1.13;;;;;;;15.07;79.23;101420.06;5043895;28;20160;-60
2022/08/06 00:48:13;;;;;;;2.72;0.80;;;;;;;15.06;79.56;101426.31;5056264;28;20054;-61
2022/08/06 00:51:00;;;;;;;2.35;0.73;;;;;;;15.01;79.41;101428.44;5052328;28;20075;-60
2022/08/06 00:53:28;;;;;;;1.98;0.70;;;;;;;14.96;79.42;101428.72;5057129;28;20045;-61
2022/08/06 00:56:01;;;;;;;1.90;0.80;;;;;;;14.92;79.63;101440.47;5051990;28;20437;-58
2022/08/06 00:58:35;;;;;;;2.90;0.83;;;;;;;14.83;79.38;101433.09;5046335;28;20048;-57
2022/08/06 01:01:08;;;;;;;1.45;0.70;;;;;;;14.84;79.72;101432.16;5057865;28;20045;-59
2022/08/06 01:03:45;;;;;;;3.42;0.85;;;;;;;14.80;79.74;101443.91;5055213;28;20041;-59
2022/08/06 01:06:21;;;;;;;5.15;1.33;;;;;;;14.78;79.34;101445.81;5050943;28;20392;-61
2022/08/06 01:09:09;;;;;;;2.22;0.90;;;;;;;14.75;78.95;101453.94;5057607;28;20059;-60
2022/08/06 01:11:37;;;;;;;5.05;0.80;;;;;;;14.73;78.78;101456.69;5045873;28;20075;-60
2022/08/06 01:14:06;;;;;;;2.53;0.90;;;;;;;14.67;78.51;101452.63;5056070;28;20066;-58
2022/08/06 01:16:55;;;;;;;2.75;0.73;;;;;;;14.66;78.80;101452.72;5055368;28;20048;-60
2022/08/06 01:19:25;;;;;;;2.58;0.93;;;;;;;14.60;78.47;101451.31;5053834;28;20068;-59
2022/08/06 01:22:37;;;;;;;1.92;0.80;;;;;;;14.59;78.82;101462.88;5055764;28;20052;-60
2022/08/06 01:25:19;;;;;;;4.05;1.48;;;;;;;14.53;78.86;101457.09;5053117;28;20066;-60
2022/08/06 01:27:53;;;;;;;20.25;1.42;;;;;;;14.48;78.38;101454.72;5041412;28;20080;-60
2022/08/06 01:30:29;;;;;;;3.50;0.82;;;;;;;14.46;78.36;101456.59;5049235;28;20057;-59
2022/08/06 01:33:12;;;;;;;2.28;0.60;;;;;;;14.38;78.46;101448.25;5047881;28;20523;-60
2022/08/06 01:35:49;;;;;;;2.63;0.88;;;;;;;14.37;78.53;101462.47;5051808;28;20057;-60
2022/08/06 01:38:25;;;;;;;1.80;0.80;;;;;;;14.35;78.29;101456.38;5048112;28;20091;-61
2022/08/06 01:40:53;;;;;;;2.35;0.82;;;;;;;14.34;78.72;101462.63;5049025;28;20063;-61
2022/08/06 01:43:21;;;;;;;1.13;0.80;;;;;;;14.32;78.71;101456.56;5052220;28;20071;-60
2022/08/06 01:46:09;;;;;;;3.92;1.00;;;;;;;14.28;78.55;101457.72;5049932;28;20049;-60
2022/08/06 01:48:37;;;;;;;2.65;0.90;;;;;;;14.29;78.85;101448.84;5057609;28;20068;-58
2022/08/06 01:51:07;;;;;;;4.53;1.80;;;;;;;14.28;78.52;101453.28;5052508;28;20053;-61
2022/08/06 01:53:47;;;;;;;3.90;0.98;;;;;;;14.27;78.66;101458.66;5058151;28;20049;-62
2022/08/06 01:56:35;;;;;;;2.95;1.02;;;;;;;14.27;78.58;101456.00;5057458;28;20057;-61
2022/08/06 01:59:26;;;;;;;3.42;0.60;;;;;;;14.25;78.76;101447.31;5052201;28;20373;-61
2022/08/06 02:01:56;;;;;;;1.63;0.80;;;;;;;14.25;78.71;101449.97;5055788;28;20060;-61
2022/08/06 02:04:27;;;;;;;3.67;0.95;;;;;;;14.23;78.84;101450.06;5057247;28;20297;-61
2022/08/06 02:06:56;;;;;;;1.73;0.70;;;;;;;14.19;79.23;101460.00;5051304;28;20496;-61
2022/08/06 02:09:24;;;;;;;1.45;0.70;;;;;;;14.17;79.48;101466.31;5057296;28;20061;-56
2022/08/06 02:12:26;;;;;;;1.70;0.93;;;;;;;14.12;79.67;101460.44;5054679;28;20061;-61
2022/08/06 02:14:56;;;;;;;1.58;0.70;;;;;;;14.09;80.09;101468.56;5051920;28;20067;-59
2022/08/06 02:17:31;;;;;;;2.78;0.95;;;;;;;14.01;80.45;101455.81;5054411;28;20377;-61
2022/08/06 02:20:30;;;;;;;3.55;1.00;;;;;;;14.01;80.35;101449.66;5051215;28;20501;-58
2022/08/06 02:23:07;;;;;;;2.03;1.05;;;;;;;13.99;80.61;101452.38;5058319;28;20496;-62
2022/08/06 02:25:39;;;;;;;2.85;1.00;;;;;;;13.97;81.15;101467.53;5054737;28;20060;-59
2022/08/06 02:28:09;;;;;;;4.40;0.70;;;;;;;13.93;81.69;101469.50;5056614;28;20566;-60
2022/08/06 02:30:40;;;;;;;2.97;0.75;;;;;;;13.91;82.08;101476.69;5055795;28;20534;-64
2022/08/06 02:33:10;;;;;;;2.33;0.85;;;;;;;13.88;82.00;101479.50;5053429;28;20543;-61
2022/08/06 02:35:58;;;;;;;2.05;0.95;;;;;;;13.84;82.02;101482.44;5056378;28;20494;-61
2022/08/06 02:38:54;;;;;;;1.65;0.98;;;;;;;13.84;82.54;101483.28;5058513;28;20061;-64
2022/08/06 02:42:00;;;;;;;2.08;0.70;;;;;;;13.79;82.93;101488.00;5057351;28;20053;-60
2022/08/06 02:44:36;;;;;;;2.63;0.63;;;;;;;13.74;82.92;101483.91;5055448;28;20041;-59
2022/08/06 02:47:11;;;;;;;1.65;0.73;;;;;;;13.70;84.13;101496.47;5056962;28;20524;-60
2022/08/06 02:49:45;;;;;;;1.90;0.75;;;;;;;13.65;84.05;101495.88;5056871;28;20064;-58
2022/08/06 02:52:30;;;;;;;1.42;0.68;;;;;;;13.64;84.20;101495.03;5056792;28;20307;-60
2022/08/06 02:55:10;;;;;;;1.83;0.68;;;;;;;13.61;84.59;101510.22;5054300;28;20048;-60
2022/08/06 02:57:42;;;;;;;4.80;1.05;;;;;;;13.59;84.91;101518.22;5050729;28;20410;-59
2022/08/06 03:00:19;;;;;;;2.97;0.90;;;;;;;13.61;84.41;101521.66;5046142;28;20053;-56
2022/08/06 03:02:58;;;;;;;2.42;0.90;;;;;;;13.60;84.03;101509.38;5060269;28;20049;-59
2022/08/06 03:05:27;;;;;;;2.55;0.90;;;;;;;13.57;84.43;101516.63;5053827;28;20061;-59
2022/08/06 03:08:18;;;;;;;2.17;0.80;;;;;;;13.55;84.38;101519.34;5045062;28;20080;-56
2022/08/06 03:10:49;;;;;;;3.53;0.80;;;;;;;13.54;84.52;101515.00;5049624;28;20057;-57
2022/08/06 03:13:17;;;;;;;2.53;0.90;;;;;;;13.52;84.62;101516.91;5054332;28;20059;-59
2022/08/06 03:15:46;;;;;;;1.85;0.75;;;;;;;13.48;84.30;101525.94;5054582;28;20056;-59
2022/08/06 03:18:27;;;;;;;2.42;0.63;;;;;;;13.45;84.25;101525.25;5059926;22;20037;-78
2022/08/06 03:20:56;;;;;;;2.92;1.05;;;;;;;13.41;84.64;101527.22;5027594;28;20054;-79
2022/08/06 03:23:23;;;;;;;3.22;0.95;;;;;;;13.41;84.49;101533.34;5037939;22;20068;-53
2022/08/06 03:25:54;;;;;;;2.78;0.68;;;;;;;13.43;84.14;101544.72;5034309;28;20494;-54
2022/08/06 03:28:22;;;;;;;1.75;0.88;;;;;;;13.43;84.53;101546.50;5036669;28;20423;-54
2022/08/06 03:30:51;;;;;;;2.55;0.80;;;;;;;13.40;83.95;101557.25;5031539;28;20055;-59
2022/08/06 03:33:22;;;;;;;1.70;0.90;;;;;;;13.38;84.27;101557.34;5036981;28;20053;-58
2022/08/06 03:36:10;;;;;;;2.42;0.90;;;;;;;13.38;83.85;101559.16;5029691;28;20056;-56
2022/08/06 03:38:43;;;;;;;2.58;0.90;;;;;;;13.34;84.07;101558.47;5033803;28;20075;-55
2022/08/06 03:41:12;;;;;;;2.80;0.95;;;;;;;13.33;83.75;101562.03;5031560;28;20509;-55
2022/08/06 03:43:44;;;;;;;1.98;0.60;;;;;;;13.30;83.90;101569.28;5031122;28;20506;-57
2022/08/06 03:46:32;;;;;;;;;;;;;;;13.32;83.82;101580.63;5036604;28;20050;-53
2022/08/06 03:49:03;;;;;;;2.95;1.00;;;;;;;13.29;83.75;101579.03;5037064;28;19924;-56
2022/08/06 03:51:33;;;;;;;4.60;1.02;;;;;;;13.29;83.34;101579.03;5027520;28;20056;-54
2022/08/06 03:54:24;;;;;;;1.23;0.70;;;;;;;13.29;83.81;101586.94;5029215;28;20053;-57
2022/08/06 03:57:08;;;;;;;3.83;1.10;;;;;;;13.29;83.54;101586.94;5032170;28;20531;-57
2022/08/06 03:59:40;;;;;;;3.25;0.77;;;;;;;13.31;83.52;101597.44;5031590;28;20045;-55
2022/08/06 04:02:27;;;;;;;4.30;1.10;;;;;;;13.31;83.83;101603.56;5031451;28;20054;-58
2022/08/06 04:05:17;;;;;;;3.33;0.80;;;;;;;13.29;83.34;101602.81;5038426;28;20156;-56
2022/08/06 04:07:51;;;;;;;3.92;0.70;;;;;;;13.29;83.51;101608.09;5042052;28;20091;-56
2022/08/06 04:10:32;;;;;;;4.85;0.77;;;;;;;13.31;83.82;101606.22;5028744;28;20057;-54
2022/08/06 04:13:08;;;;;;;2.03;0.70;;;;;;;13.36;83.81;101606.81;5039954;28;20501;-54
2022/08/06 04:15:56;;;;;;;2.38;0.80;;;;;;;13.36;83.49;101611.25;5026752;28;20060;-56
2022/08/06 04:18:26;;;;;;;2.17;0.90;;;;;;;13.39;83.63;101613.75;5038567;28;20468;-56
2022/08/06 04:20:57;;;;;;;5.85;1.63;;;;;;;13.37;83.25;101621.78;5036437;28;20060;-54
2022/08/06 04:23:44;;;;;;;1.75;0.73;;;;;;;13.35;83.48;101617.50;5027209;28;20049;-52
2022/08/06 04:26:13;;;;;;;4.43;0.88;;;;;;;13.41;83.71;101615.34;5037304;28;20057;-54
2022/08/06 04:28:43;;;;;;;2.00;0.63;;;;;;;13.50;82.80;101624.56;5034069;28;20069;-58
2022/08/06 04:31:26;;;;;;;5.45;0.90;;;;;;;13.47;83.18;101626.56;5012868;28;20049;-55
2022/08/06 04:34:18;;;;;;;1.48;0.65;;;;;;;13.52;82.88;101632.44;5037134;28;20052;-56
2022/08/06 04:36:47;;;;;;;2.03;0.70;;;;;;;13.56;82.91;101631.34;5031484;28;20049;-57
2022/08/06 04:39:20;;;;;;;5.15;1.05;;;;;;;13.56;82.60;101636.63;5035182;28;20054;-56
2022/08/06 04:42:04;;;;;;;3.88;1.25;;;;;;;13.48;82.36;101641.47;5035369;28;20551;-56
2022/08/06 04:44:33;;;;;;;2.83;0.95;;;;;;;13.53;82.29;101639.44;5029305;28;20053;-58
2022/08/06 04:47:00;;;;;;;3.97;0.82;;;;;;;13.57;82.35;101640.97;5035082;28;20054;-54
2022/08/06 04:49:29;;;;;;;3.08;0.80;;;;;;;13.59;82.12;101652.31;5034599;28;20163;-59
2022/08/06 04:52:24;;;;;;;2.03;0.90;;;;;;;13.58;82.14;101655.91;5024539;28;20060;-59
2022/08/06 04:55:11;;;;;;;2.88;0.90;;;;;;;13.60;82.04;101657.53;5032696;28;20053;-54
2022/08/06 04:57:52;;;;;;;2.83;0.90;;;;;;;13.54;82.56;101660.50;5032385;28;20060;-52
2022/08/06 05:00:34;;;;;;;2.97;0.90;;;;;;;13.58;82.50;101669.97;5035833;28;20049;-56
2022/08/06 05:03:21;;;;;;;2.95;1.00;;;;;;;13.62;81.89;101666.22;5035389;28;20045;-59
2022/08/06 05:06:45;;;;;;;3.05;0.70;;;;;;;13.64;81.42;101671.44;5028911;28;20056;-53
2022/08/06 05:09:18;;;;;;;2.83;0.80;;;;;;;13.70;81.45;101671.13;5035062;28;20053;-56
2022/08/06 05:11:59;;;;;;;3.75;1.45;;;;;;;13.74;81.48;101680.59;5033052;28;20073;-55
2022/08/06 05:14:34;;;;;;;0.98;0.70;;;;;;;13.72;81.27;101684.25;5037108;28;20309;-55
2022/08/06 05:17:01;;;;;;;;;;;;;;;13.73;81.21;101691.25;5032490;28;20061;-54
2022/08/06 05:19:35;;;;;;;2.70;0.70;;;;;;;13.69;81.79;101693.22;5031381;28;19921;-56
2022/08/06 05:22:02;;;;;;;3.40;0.80;;;;;;;13.67;81.40;101693.28;5032858;28;20056;-55
2022/08/06 05:24:40;;;;;;;6.00;1.00;;;;;;;13.68;81.20;101696.78;5035675;28;20057;-58
2022/08/06 05:27:27;;;;;;;2.33;0.73;;;;;;;13.62;81.88;101703.28;5042634;28;20058;-55
2022/08/06 05:30:14;;;;;;;3.60;1.10;;;;;;;13.63;81.70;101712.91;5037143;28;20065;-51
2022/08/06 05:32:43;;;;;;;2.33;0.98;;;;;;;13.58;82.16;101719.41;5036677;28;20505;-53
2022/08/06 05:35:12;;;;;;;4.50;1.25;;;;;;;13.61;82.10;101721.88;5038462;28;20068;-55
2022/08/06 05:37:44;;;;;;;2.20;0.82;;;;;;;13.63;82.08;101727.94;5038727;28;20068;-55
2022/08/06 05:40:33;;;;;;;4.93;1.10;;;;;;;13.62;81.63;101724.44;5048140;28;20063;-56
2022/08/06 05:43:21;;;;;;;4.20;0.82;;;;;;;13.59;81.95;101723.75;5049394;28;20049;-53
2022/08/06 05:45:52;;;;;;;2.17;0.80;;;;;;;13.59;82.06;101726.41;5037353;28;20050;-53
2022/08/06 05:48:20;;;;;;;3.35;1.05;;;;;;;13.63;81.56;101720.84;5039424;28;20417;-56
2022/08/06 05:51:09;;;;;;;6.88;1.38;;;;;;;13.81;81.56;101723.44;5033854;28;20067;-56
2022/08/06 05:53:43;;;;;;;1.58;0.90;;;;;;;13.94;81.09;101733.25;5031456;28;20219;-58
2022/08/06 05:56:34;;;;;;;3.28;1.00;;;;;;;14.13;80.32;101737.53;5034897;28;20049;-58
2022/08/06 05:59:17;;;;;;;;;;;;;;;14.16;79.97;101735.56;5026690;28;20054;-56
2022/08/06 06:02:05;;;;;;;2.60;0.90;;;;;;;14.31;79.52;101733.84;5027265;28;19927;-54
2022/08/06 06:04:33;;;;;;;3.40;0.90;;;;;;;14.42;78.91;101744.69;5029699;28;20100;-55
2022/08/06 06:07:01;;;;;;;4.10;0.75;;;;;;;14.47;78.47;101748.88;5029787;28;20068;-54
2022/08/06 06:09:31;;;;;;;4.68;1.00;;;;;;;14.42;78.03;101757.09;5031527;28;20502;-58
2022/08/06 06:12:18;;;;;;;5.63;1.77;;;;;;;14.55;77.99;101759.94;5030842;28;20057;-54
2022/08/06 06:14:48;;;;;;;2.05;0.70;;;;;;;14.58;77.50;101759.72;5029799;28;20054;-56
2022/08/06 06:17:34;;;;;;;10.30;1.70;;;;;;;14.67;77.29;101753.91;5029477;28;20045;-54
2022/08/06 06:20:17;;;;;;;3.15;1.00;;;;;;;14.93;76.72;101747.06;5029540;28;20064;-54
2022/08/06 06:23:30;;;;;;;9.23;1.42;;;;;;;15.07;75.55;101757.72;5028373;28;20075;-55
2022/08/06 06:26:28;;;;;;;2.85;0.90;;;;;;;15.17;74.91;101760.66;5037968;28;20062;-55
2022/08/06 06:29:15;;;;;;;3.53;1.08;;;;;;;15.09;74.35;101766.44;5032971;28;20045;-56
2022/08/06 06:32:33;;;;;;;3.15;1.15;;;;;;;15.13;74.45;101767.09;5041761;28;20575;-53
2022/08/06 06:35:13;;;;;;;4.15;1.00;;;;;;;15.29;73.92;101767.03;5045901;28;20057;-55
2022/08/06 06:37:58;;;;;;;2.72;0.85;;;;;;;15.42;73.79;101771.50;5045465;28;20053;-53
2022/08/06 06:40:44;;;;;;;3.58;1.65;;;;;;;15.58;72.77;101775.84;5040247;28;20054;-56
2022/08/06 06:43:25;;;;;;;5.40;1.40;;;;;;;15.53;71.40;101776.16;5032445;28;20406;-52
2022/08/06 06:46:20;;;;;;;3.00;1.02;;;;;;;15.60;71.68;101785.44;5030880;28;20050;-58
2022/08/06 06:49:08;;;;;;;;;;;;;;;15.54;71.73;101790.28;5026687;28;20049;-55
2022/08/06 06:52:01;;;;;;;4.43;1.50;;;;;;;15.76;71.56;101787.19;5018288;28;20379;-52
2022/08/06 06:54:40;;;;;;;5.90;1.52;;;;;;;15.83;70.12;101792.00;5029172;28;20052;-54
2022/08/06 06:57:11;;;;;;;6.20;1.52;;;;;;;15.79;70.42;101787.00;5030217;28;20045;-56
2022/08/06 06:59:45;;;;;;;3.78;1.02;;;;;;;16.01;70.00;101791.81;5028106;28;20057;-58
2022/08/06 07:02:36;;;;;;;3.58;1.23;;;;;;;16.10;69.18;101791.22;5028554;28;20474;-54
2022/08/06 07:05:04;;;;;;;2.83;1.50;;;;;;;16.14;68.93;101792.75;5028538;28;20324;-52
2022/08/06 07:07:35;;;;;;;5.75;1.60;;;;;;;16.32;68.71;101801.34;5025236;28;20057;-54
2022/08/06 07:10:04;;;;;;;5.50;1.30;;;;;;;16.44;68.48;101803.22;5027284;28;20069;-53
2022/08/06 07:12:37;;;;;;;3.75;1.10;;;;;;;16.61;67.78;101802.09;5030379;28;20057;-55
2022/08/06 07:15:07;;;;;;;5.13;1.10;;;;;;;16.43;67.33;101798.81;5027143;28;20316;-53
2022/08/06 07:17:46;;;;;;;2.65;1.00;;;;;;;16.36;68.03;101795.72;5029194;28;20054;-53
2022/08/06 07:20:25;;;;;;;3.28;1.48;;;;;;;16.70;68.06;101799.69;5028169;28;20056;-52
2022/08/06 07:22:58;;;;;;;3.88;1.10;;;;;;;17.00;66.37;101809.28;5029160;28;20057;-53
2022/08/06 07:25:48;;;;;;;3.35;1.33;;;;;;;17.03;65.88;101806.41;5026774;28;20462;-52
2022/08/06 07:28:28;;;;;;;3.70;1.25;;;;;;;17.05;65.67;101807.16;5029585;28;20049;-54
2022/08/06 07:30:57;;;;;;;2.50;0.82;;;;;;;17.14;65.25;101813.66;5021929;28;20398;-56
2022/08/06 07:33:34;;;;;;;3.17;0.80;;;;;;;17.33;65.13;101821.25;5030253;28;20140;-54
2022/08/06 07:36:23;;;;;;;3.63;1.17;;;;;;;17.62;64.18;101820.09;5027982;28;20049;-53
2022/08/06 07:38:59;;;;;;;4.32;1.10;;;;;;;17.77;62.52;101812.88;5030527;28;20057;-56
2022/08/06 07:41:28;;;;;;;2.20;0.80;;;;;;;17.72;62.94;101820.31;5026699;28;20095;-51
2022/08/06 07:44:15;;;;;;;3.20;1.10;;;;;;;17.79;62.73;101820.78;5025941;28;20057;-56
2022/08/06 07:46:49;;;;;;;3.40;0.98;;;;;;;17.95;62.27;101829.38;5026663;28;20593;-58
2022/08/06 07:49:22;;;;;;;5.30;0.82;;;;;;;17.91;62.31;101825.22;5029426;28;20473;-55
2022/08/06 07:52:12;;;;;;;3.75;0.85;;;;;;;18.17;61.99;101829.53;5025363;28;20050;-57
2022/08/06 07:54:44;;;;;;;1.67;0.60;;;;;;;18.49;60.78;101826.34;5028296;28;20529;-56
2022/08/06 07:57:12;;;;;;;7.30;0.85;;;;;;;18.52;58.46;101823.47;5027550;28;20045;-54
2022/08/06 07:59:52;;;;;;;1.33;0.68;;;;;;;18.35;59.10;101826.53;5026893;28;20041;-54
2022/08/06 08:02:22;;;;;;;2.10;0.77;;;;;;;18.44;57.85;101826.69;5029310;28;20060;-54
2022/08/06 08:07:45;;;;;;;3.50;0.80;;;;;;;18.84;57.68;101833.63;5029565;28;20049;-56
2022/08/06 08:10:24;;;;;;;2.67;0.75;;;;;;;19.25;56.50;101838.50;5026409;28;20045;-58
2022/08/06 08:12:55;;;;;;;4.03;0.60;;;;;;;19.27;56.47;101835.69;5029487;28;20058;-56
2022/08/06 08:15:22;;;;;;;3.03;0.88;;;;;;;19.60;56.08;101843.81;5025944;28;20057;-54
2022/08/06 08:17:53;;;;;;;3.90;0.70;;;;;;;19.73;55.19;101849.91;5025821;28;20072;-54
2022/08/06 08:20:26;;;;;;;5.38;0.65;;;;;;;19.71;54.07;101849.16;5027694;28;20053;-50
2022/08/06 08:23:04;;;;;;;3.35;0.75;;;;;;;19.92;54.11;101845.78;5029651;28;20053;-53
2022/08/06 08:25:33;;;;;;;7.55;0.75;;;;;;;20.05;53.13;101838.50;5027392;28;20517;-53
2022/08/06 08:28:08;;;;;;;2.45;0.73;;;;;;;20.26;52.94;101846.59;5028694;28;20053;-56
2022/08/06 08:30:40;;;;;;;2.45;0.50;;;;;;;20.03;51.16;101848.44;5025711;28;20052;-56
2022/08/06 08:33:07;;;;;;;6.28;0.73;;;;;;;19.81;50.84;101848.44;5029393;28;20062;-54
2022/08/06 08:35:44;;;;;;;1.98;0.50;;;;;;;19.92;51.67;101837.78;5020123;28;20434;-55
2022/08/06 08:38:31;;;;;;;1.83;0.60;;;;;;;20.39;50.88;101843.81;5030969;28;20057;-52
2022/08/06 08:41:09;;;;;;;6.00;0.65;;;;;;;20.59;50.06;101844.91;5030073;28;20053;-52
2022/08/06 08:43:44;;;;;;;0.98;0.40;;;;;;;20.83;48.66;101852.72;5027470;28;20156;-54
2022/08/06 08:46:33;;;;;;;3.00;0.77;;;;;;;21.02;47.47;101839.50;5042286;28;20200;-56
2022/08/06 08:49:17;;;;;;;1.17;0.50;;;;;;;21.12;47.66;101844.91;5027977;28;20390;-59
2022/08/06 08:51:46;;;;;;;3.13;0.47;;;;;;;21.23;47.67;101850.22;5025777;28;20397;-57
2022/08/06 08:54:17;;;;;;;2.63;0.77;;;;;;;20.91;47.29;101852.94;5028616;28;20382;-56
2022/08/06 08:56:46;;;;;;;2.78;0.40;;;;;;;20.71;46.92;101860.81;5029571;28;20099;-54
2022/08/06 08:59:35;;;;;;;2.63;0.60;;;;;;;20.69;45.91;101849.34;5024442;28;20068;-59
2022/08/06 09:02:23;;;;;;;1.98;0.40;;;;;;;20.57;46.49;101847.69;5029041;28;20054;-56
2022/08/06 09:04:52;;;;;;;1.15;0.40;;;;;;;20.93;46.14;101853.66;5023977;28;20052;-57
2022/08/06 09:07:20;;;;;;;3.33;0.65;;;;;;;20.93;45.58;101851.81;5026980;28;20506;-53
2022/08/06 09:10:06;;;;;;;3.50;0.45;;;;;;;21.13;45.78;101846.66;5027294;28;20057;-54
2022/08/06 09:12:35;;;;;;;3.03;0.75;;;;;;;21.24;45.77;101858.13;5027152;28;20049;-57
2022/08/06 09:15:15;;;;;;;1.20;0.30;;;;;;;21.39;44.27;101848.00;5025003;28;20053;-56
2022/08/06 09:17:45;;;;;;;5.50;0.63;;;;;;;21.25;44.50;101856.28;5039513;22;20049;-82
2022/08/06 09:20:33;;;;;;;2.53;0.80;;;;;;;20.90;45.17;101853.94;5066307;28;20064;-82
2022/08/06 09:23:01;;;;;;;1.35;0.40;;;;;;;20.94;45.56;101853.53;5065131;28;20045;-84
2022/08/06 09:25:42;;;;;;;3.88;0.65;;;;;;;20.93;44.91;101864.34;5055885;28;20591;-85
2022/08/06 09:28:38;;;;;;;1.83;0.63;;;;;;;20.86;45.34;101858.69;5031180;28;20077;-85
2022/08/06 09:31:12;;;;;;;5.72;0.50;;;;;;;21.20;45.26;101862.03;5006868;28;20235;-84
2022/08/06 09:33:58;;;;;;;4.35;0.57;;;;;;;21.41;41.52;101866.59;5040176;28;20053;-82
2022/08/06 09:36:55;;;;;;;3.28;0.70;;;;;;;21.83;41.95;101856.69;5035858;28;20044;-84
2022/08/06 09:39:49;;;;;;;2.17;0.40;;;;;;;21.93;41.30;101865.66;5035934;28;20037;-80
2022/08/06 09:42:40;;;;;;;1.35;0.80;;;;;;;21.54;41.95;101877.97;5032633;28;20261;-83
2022/08/06 09:45:12;;;;;;;3.55;0.88;;;;;;;21.22;42.68;101867.28;5010577;28;20678;-82
2022/08/06 09:47:48;;;;;;;1.08;0.60;;;;;;;20.97;43.55;101865.81;5030062;28;20033;-83
2022/08/06 09:50:39;;;;;;;6.13;0.93;;;;;;;21.20;43.53;101872.75;5034251;28;20171;-82
2022/08/06 09:53:10;;;;;;;5.82;0.65;;;;;;;21.17;42.54;101873.03;5047500;28;20049;-83
2022/08/06 09:55:41;;;;;;;3.17;0.63;;;;;;;20.88;43.11;101871.94;5015175;28;20045;-82
2022/08/06 09:58:09;;;;;;;3.22;0.90;;;;;;;20.73;43.64;101869.53;5043168;28;20079;-84
2022/08/06 10:00:37;;;;;;;3.08;0.70;;;;;;;20.12;44.96;101863.75;5044034;28;20068;-85
2022/08/06 10:03:07;;;;;;;1.77;0.88;;;;;;;19.91;45.28;101871.69;5047371;28;20053;-82
2022/08/06 10:06:21;;;;;;;2.92;0.50;;;;;;;19.99;45.22;101868.38;5035543;28;20069;-83
2022/08/06 10:08:50;;;;;;;5.10;0.70;;;;;;;20.32;44.38;101864.84;5019852;28;20041;-85
2022/08/06 10:11:35;;;;;;;1.80;0.70;;;;;;;20.64;43.60;101862.28;5012730;28;20366;-84
2022/08/06 10:14:29;;;;;;;2.05;0.77;;;;;;;21.13;42.03;101863.56;5027308;28;20044;-83
2022/08/06 10:17:11;;;;;;;3.15;0.85;;;;;;;21.35;41.02;101869.81;5035160;28;20055;-83
2022/08/06 10:19:45;;;;;;;6.35;0.60;;;;;;;21.29;40.64;101871.13;5029451;28;20067;-82
2022/08/06 10:22:19;;;;;;;1.17;0.40;;;;;;;21.71;40.95;101868.50;5043174;28;20104;-81
2022/08/06 10:24:53;;;;;;;2.50;0.60;;;;;;;22.10;40.16;101865.97;5010044;28;20397;-82
2022/08/06 10:27:28;;;;;;;1.38;0.50;;;;;;;22.11;39.90;101870.34;5020122;28;20088;-83
2022/08/06 10:30:06;;;;;;;3.63;0.77;;;;;;;21.54;40.50;101869.94;5040328;28;20061;-82
2022/08/06 10:32:53;;;;;;;2.20;0.88;;;;;;;21.07;41.68;101877.44;5024560;28;20045;-83
2022/08/06 10:35:22;;;;;;;2.47;0.50;;;;;;;20.71;42.96;101875.97;5043458;28;20056;-83
2022/08/06 10:37:58;;;;;;;2.97;0.65;;;;;;;20.61;43.73;101875.88;5009085;28;20505;-82
2022/08/06 10:40:30;;;;;;;1.83;0.60;;;;;;;20.86;43.30;101876.56;5052622;28;20096;-80
2022/08/06 10:43:06;;;;;;;4.20;0.50;;;;;;;21.17;42.29;101875.72;5040129;28;20045;-83
2022/08/06 10:45:35;;;;;;;2.03;0.65;;;;;;;21.65;40.65;101875.22;5018536;28;20060;-82
2022/08/06 10:48:16;;;;;;;0.90;0.43;;;;;;;21.78;40.37;101877.69;5016121;28;20049;-83
2022/08/06 10:51:05;;;;;;;3.05;0.60;;;;;;;22.29;39.51;101859.88;5034352;28;20053;-82
2022/08/06 10:53:37;;;;;;;1.50;0.38;;;;;;;22.13;39.79;101876.47;5038861;28;20037;-83
2022/08/06 10:56:26;;;;;;;3.22;0.73;;;;;;;22.20;39.49;101866.91;5028951;28;20067;-83
2022/08/06 10:59:05;;;;;;;3.92;0.60;;;;;;;22.19;39.62;101874.09;5018232;28;20116;-85
2022/08/06 11:02:10;;;;;;;3.67;0.68;;;;;;;21.85;39.60;101878.03;5038735;28;20048;-82
2022/08/06 11:04:51;;;;;;;1.60;0.60;;;;;;;21.47;40.07;101874.09;5022216;28;20050;-82
2022/08/06 11:07:52;;;;;;;1.73;0.50;;;;;;;21.55;38.77;101871.63;5024005;28;20033;-82
2022/08/06 11:11:10;;;;;;;1.13;0.30;;;;;;;21.88;38.35;101872.38;5044587;28;20093;-80
2022/08/06 11:14:01;;;;;;;2.58;0.40;;;;;;;22.07;37.57;101855.53;5062667;28;20036;-82
2022/08/06 11:16:30;;;;;;;3.58;0.60;;;;;;;22.14;37.56;101849.50;5050257;28;20037;-84
2022/08/06 11:19:05;;;;;;;4.00;0.57;;;;;;;22.53;37.06;101848.78;5037183;28;20064;-82
2022/08/06 11:21:38;;;;;;;1.55;0.70;;;;;;;22.27;37.94;101862.69;5039092;28;20129;-84
2022/08/06 11:24:25;;;;;;;1.67;0.70;;;;;;;22.22;37.93;101857.75;5035011;28;20152;-84
2022/08/06 11:26:55;;;;;;;3.88;0.77;;;;;;;22.44;38.29;101856.66;5027398;28;20075;-84
2022/08/06 11:30:09;;;;;;;1.42;0.50;;;;;;;22.70;36.76;101857.00;5033316;28;20046;-83
2022/08/06 11:32:42;;;;;;;6.90;0.65;;;;;;;22.74;35.56;101857.59;5015881;28;20055;-84
2022/08/06 11:35:32;;;;;;;3.70;0.60;;;;;;;22.64;35.30;101846.81;5045890;28;20107;-84
2022/08/06 11:38:13;;;;;;;2.60;0.63;;;;;;;23.11;35.83;101849.69;5035889;28;20122;-83
2022/08/06 11:40:57;;;;;;;2.38;0.40;;;;;;;23.63;35.41;101850.16;5025075;28;20428;-84
2022/08/06 11:43:47;;;;;;;2.50;0.45;;;;;;;23.56;34.71;101850.91;5023397;28;20378;-84
2022/08/06 11:46:34;;;;;;;1.67;0.70;;;;;;;23.40;35.15;101846.97;5016958;28;20410;-83
2022/08/06 11:49:22;;;;;;;1.40;0.60;;;;;;;23.59;35.20;101845.22;5036841;28;20064;-83
2022/08/06 11:51:55;;;;;;;2.97;0.63;;;;;;;23.80;34.40;101853.97;5039376;28;20053;-83
2022/08/06 11:54:37;;;;;;;0.90;0.35;;;;;;;23.83;33.73;101851.00;5037281;28;20134;-84
2022/08/06 11:57:11;;;;;;;1.77;0.50;;;;;;;23.79;33.73;101846.91;5019385;28;20037;-84
2022/08/06 11:59:58;;;;;;;1.88;0.40;;;;;;;23.79;33.55;101844.22;5033993;28;21568;-83
2022/08/06 12:02:45;;;;;;;1.48;0.52;;;;;;;24.03;33.72;101837.47;5047503;28;20076;-83
2022/08/06 12:05:13;;;;;;;2.55;0.70;;;;;;;23.93;33.47;101841.03;5041258;28;20113;-83
2022/08/06 12:07:49;;;;;;;2.00;0.55;;;;;;;23.52;33.74;101838.75;5032638;28;20064;-83
2022/08/06 12:10:18;;;;;;;2.47;0.65;;;;;;;23.81;33.80;101842.22;5013094;28;20064;-84
2022/08/06 12:12:56;;;;;;;1.90;0.65;;;;;;;24.33;31.92;101839.84;5013189;28;20049;-84
2022/08/06 12:15:27;;;;;;;2.13;0.73;;;;;;;24.39;31.70;101844.66;5027011;28;20046;-83
2022/08/06 12:18:14;;;;;;;2.45;0.50;;;;;;;24.50;31.92;101851.69;5039802;28;20195;-84
2022/08/06 12:20:49;;;;;;;2.88;0.70;;;;;;;24.50;30.68;101840.94;5020897;28;20037;-83
2022/08/06 12:23:22;;;;;;;2.33;0.40;;;;;;;24.20;30.92;101834.81;5013224;28;20048;-84